Pilot No. 4 — WDA5463 — position and weather

sailwx.info

Track history (hours):
 
Tides and Currents Weather Stations Pressure Air Temp Water Temp Dewpoint Dewpoint Depression Visibility Wind Speed Wind Dir Waves Ship Positions

Pilot No. 4

Owner: P E P Inc, FORT LAUDERDALE, FL. More information available from US FCC via Universal Licensing System and Coast Guard Vessel Documentation Center.

Last reported at 2017-Oct-19 04:54 UTC. Time now 2017-Oct-20 09:08 UTC.
Position N 26°06' W 080°07'.

MMSI: 495270931.

Date/timePositionNaut miles runAvg speedWind from/ knotsBaromVisibWave heightAir tempDewpointWater temp
2017-Oct-19 04:54N 26°06' W 080°07'2 4.7
2017-Oct-19 04:30N 26°05' W 080°05'2 3.0
2017-Oct-19 04:00N 26°05' W 080°07'0 0.1
2017-Oct-19 03:30N 26°05' W 080°07'2 3.9
2017-Oct-19 03:00N 26°06' W 080°05'2 4.2
2017-Oct-19 02:30N 26°06' W 080°07'1 1.1
2017-Oct-19 02:00N 26°05' W 080°07'1 1.4
2017-Oct-19 01:30N 26°06' W 080°07'2 3.7
2017-Oct-19 01:01N 26°06' W 080°05'1 2.2
2017-Oct-19 00:30N 26°05' W 080°04'3 5.9
2017-Oct-19 00:00N 26°04' W 080°07'1 2.6
2017-Oct-18 23:30N 26°06' W 080°07'0 0.4
2017-Oct-18 23:00N 26°05' W 080°07'2 3.5
2017-Oct-18 22:30N 26°06' W 080°05'2 3.5
2017-Oct-18 22:00N 26°05' W 080°07'1 2.7
2017-Oct-18 21:30N 26°06' W 080°06'1 2.8
2017-Oct-18 21:00N 26°06' W 080°07'611.7
2017-Oct-18 20:30N 26°06' W 080°01'4 8.7
2017-Oct-18 20:00N 26°06' W 080°06'2 3.8
2017-Oct-18 19:30N 26°04' W 080°07'2 0.2
2017-Oct-18 10:55N 26°06' W 080°07'3 6.3
2017-Oct-18 10:30N 26°05' W 080°05'2 4.8
2017-Oct-18 10:01N 26°04' W 080°07'2 4.7
2017-Oct-18 09:30N 26°05' W 080°05'1 2.0
2017-Oct-18 09:01N 26°05' W 080°04'3 6.1
2017-Oct-18 08:30N 26°05' W 080°07'0 0.4
2017-Oct-18 08:00N 26°05' W 080°07'1 0.3
2017-Oct-18 03:26N 26°06' W 080°07'511.4
2017-Oct-18 03:00N 26°06' W 080°02'2 4.5
2017-Oct-18 02:30N 26°06' W 080°04'1 1.2
2017-Oct-18 02:00N 26°06' W 080°04'3 6.1
2017-Oct-18 01:30N 26°06' W 080°07'2 3.8
2017-Oct-18 01:00N 26°06' W 080°05'1 1.9
2017-Oct-18 00:30N 26°06' W 080°06'1 2.0
2017-Oct-18 00:01N 26°06' W 080°07'2 4.1
2017-Oct-17 23:30N 26°06' W 080°05'2 4.0
2017-Oct-17 23:00N 26°06' W 080°07'2 3.5
2017-Oct-17 22:30N 26°06' W 080°05'2 3.1
2017-Oct-17 22:00N 26°06' W 080°07'1 2.2
2017-Oct-17 21:30N 26°04' W 080°07'1 1.6
2017-Oct-17 21:01N 26°05' W 080°07'1 2.3
2017-Oct-17 20:30N 26°06' W 080°06'1 2.8
2017-Oct-17 20:00N 26°06' W 080°07'  
2017-Oct-14 18:52N 26°06' W 080°07'0 0.1
2017-Oct-14 18:30N 26°06' W 080°07'2 3.4
2017-Oct-14 18:00N 26°06' W 080°06'1 2.6
2017-Oct-14 17:30N 26°06' W 080°07'5 9.3
2017-Oct-14 17:00N 26°05' W 080°02'4 8.8
2017-Oct-14 16:30N 26°06' W 080°07'0 0.4
2017-Oct-14 16:00N 26°05' W 080°07'1 1.1
2017-Oct-14 15:30N 26°06' W 080°07'0 0.3
2017-Oct-14 14:47N 26°06' W 080°07'2 7.3
2017-Oct-14 14:30N 26°04' W 080°07'4 8.8
2017-Oct-14 14:00N 26°06' W 080°02'4 8.7
2017-Oct-14 13:30N 26°04' W 080°07'3 6.6
2017-Oct-14 13:00N 26°06' W 080°04'3 5.9
2017-Oct-14 12:31N 26°05' W 080°07'1 1.3
2017-Oct-14 12:00N 26°06' W 080°06'1 1.5
2017-Oct-14 11:30N 26°05' W 080°07'1 0.1
2017-Oct-13 19:15N 26°06' W 080°07'1 4.5
2017-Oct-13 19:00N 26°05' W 080°07'0 0.4
2017-Oct-13 18:30N 26°05' W 080°07'1 1.5
2017-Oct-13 18:01N 26°06' W 080°06'0 0.5
2017-Oct-13 17:30N 26°06' W 080°06'1 1.3
2017-Oct-13 17:00N 26°06' W 080°06'1 1.2
2017-Oct-13 16:30N 26°06' W 080°05'2 3.8
2017-Oct-13 16:00N 26°06' W 080°07'1 0.3
2017-Oct-13 13:51N 26°06' W 080°07'2 4.3
2017-Oct-13 13:30N 26°06' W 080°06'1 1.9
2017-Oct-13 13:00N 26°06' W 080°05'1 1.7
2017-Oct-13 12:30N 26°05' W 080°04'2 4.5
2017-Oct-13 12:00N 26°06' W 080°07'1 1.2
2017-Oct-13 11:25N 26°06' W 080°07'512.6
2017-Oct-13 11:00N 26°05' W 080°02'5 9.3
2017-Oct-13 10:30N 26°06' W 080°07'5 9.3
2017-Oct-13 10:00N 26°05' W 080°02'5 9.7
2017-Oct-13 09:30N 26°05' W 080°07'2 3.5
2017-Oct-13 09:00N 26°06' W 080°05'1 2.3
2017-Oct-13 08:30N 26°06' W 080°06'1 2.2
2017-Oct-13 08:00N 26°05' W 080°07'1 2.7
2017-Oct-13 07:30N 26°06' W 080°06'1 1.9
2017-Oct-13 07:00N 26°05' W 080°07'1 1.0
2017-Oct-13 06:00N 26°06' W 080°07'1 1.3
2017-Oct-13 05:30N 26°06' W 080°07'1 0.3
2017-Oct-13 03:03N 26°06' W 080°07'0 4.2
2017-Oct-13 03:00N 26°06' W 080°07'3 5.6
2017-Oct-13 02:30N 26°06' W 080°04'1 1.1
2017-Oct-13 02:00N 26°06' W 080°04'2 4.9
2017-Oct-13 01:30N 26°05' W 080°07'0 0.3
2017-Oct-13 01:00N 26°06' W 080°07'1 1.3
2017-Oct-13 00:30N 26°06' W 080°07'0 0.0
2017-Oct-13 00:00N 26°06' W 080°07'0 0.0
2017-Oct-12 23:30N 26°06' W 080°07'2 4.3
2017-Oct-12 23:00N 26°04' W 080°07'0 1.0
2017-Oct-12 22:30N 26°05' W 080°07'1 1.5
2017-Oct-12 22:00N 26°05' W 080°07'2 3.4
2017-Oct-12 21:31N 26°05' W 080°05'2 3.4
2017-Oct-12 21:00N 26°05' W 080°07'1 1.0
2017-Oct-12 20:18N 26°06' W 080°07'1 2.5
2017-Oct-12 20:01N 26°05' W 080°07'2 4.7
2017-Oct-12 19:31N 26°06' W 080°05'2 0.6
2017-Oct-12 15:26N 26°06' W 080°07'0 0.0
2017-Oct-12 14:55N 26°06' W 080°07'1 1.7
2017-Oct-12 14:30N 26°06' W 080°07'3 6.1
2017-Oct-12 14:00N 26°06' W 080°03'3 6.5
2017-Oct-12 13:30N 26°05' W 080°07'2 3.9
2017-Oct-12 13:00N 26°05' W 080°05'2 3.8
2017-Oct-12 12:30N 26°05' W 080°07'2 4.0
2017-Oct-12 12:00N 26°06' W 080°05'2 3.8
2017-Oct-12 11:30N 26°05' W 080°07'1 1.0
2017-Oct-12 10:52N 26°06' W 080°07'2 6.0
2017-Oct-12 10:30N 26°06' W 080°05'4 7.7
2017-Oct-12 10:01N 26°06' W 080°01'611.3
2017-Oct-12 09:30N 26°06' W 080°07'0 0.4
2017-Oct-12 09:00N 26°06' W 080°07'0 0.3
2017-Oct-12 07:45N 26°06' W 080°07'2 6.9
2017-Oct-12 07:30N 26°05' W 080°06'0 0.9
2017-Oct-12 07:00N 26°06' W 080°06'0 0.7
2017-Oct-12 06:31N 26°05' W 080°06'1 1.4
2017-Oct-12 06:01N 26°06' W 080°06'1 0.4
2017-Oct-12 04:14N 26°06' W 080°07'1 6.2
2017-Oct-12 04:01N 26°05' W 080°06'0 0.7
2017-Oct-12 03:30N 26°05' W 080°05'2 3.0
2017-Oct-12 03:00N 26°05' W 080°07'1 0.7
2017-Oct-12 01:50N 26°06' W 080°07'1 3.0
2017-Oct-12 01:30N 26°06' W 080°06'0 1.0
2017-Oct-12 01:00N 26°05' W 080°07'1 2.0
2017-Oct-12 00:30N 26°04' W 080°07'2 4.3
2017-Oct-12 00:00N 26°06' W 080°05'2 3.5
2017-Oct-11 23:30N 26°05' W 080°07'0 0.0
2017-Oct-11 23:00N 26°05' W 080°07'0 0.1
2017-Oct-11 22:31N 26°05' W 080°07'2 3.1
2017-Oct-11 22:01N 26°05' W 080°05'2 3.5
2017-Oct-11 21:30N 26°06' W 080°07'2 3.1
2017-Oct-11 21:00N 26°04' W 080°07'1 2.0
2017-Oct-11 20:30N 26°05' W 080°07'3 5.6
2017-Oct-11 20:00N 26°06' W 080°04'0 0.3
2017-Oct-11 19:30N 26°06' W 080°04'3 5.5
2017-Oct-11 18:59N 26°06' W 080°07'0 0.4
2017-Oct-11 18:30N 26°06' W 080°07'1 3.0
2017-Oct-11 18:00N 26°05' W 080°05'1 1.1
2017-Oct-11 17:30N 26°06' W 080°05'2 4.8
2017-Oct-11 17:00N 26°04' W 080°07'0 0.0
2017-Oct-11 00:00N 26°04' W 080°07'1 1.4
2017-Oct-10 23:27N 26°05' W 080°07'1 1.2
2017-Oct-10 23:00N 26°06' W 080°07'1 2.1
2017-Oct-10 22:30N 26°06' W 080°05'2 3.6
2017-Oct-10 22:00N 26°04' W 080°07'1 0.6
2017-Oct-10 19:31N 26°06' W 080°07'0 6.5
2017-Oct-10 19:31N 26°06' W 080°07'3 6.5
2017-Oct-10 19:00N 26°06' W 080°04'3 6.6
2017-Oct-10 18:29N 26°06' W 080°07'1 1.1
2017-Oct-10 17:24N 26°06' W 080°06'1 0.1
2017-Oct-10 08:37N 26°05' W 080°05'1 0.2
2017-Oct-10 05:12N 26°06' W 080°05'1 2.8
2017-Oct-10 04:50N 26°05' W 080°06'2 4.3
2017-Oct-10 04:27N 26°04' W 080°07'2 0.2
2017-Oct-09 17:46N 26°06' W 080°05'2 0.7
2017-Oct-09 15:21N 26°05' W 080°07'2 0.2
2017-Oct-09 09:04N 26°06' W 080°05'1 0.2
2017-Oct-09 05:26N 26°06' W 080°06'  
Track history (hours):
 
Tides and Currents Weather Stations Pressure Air Temp Water Temp Dewpoint Dewpoint Depression Visibility Wind Speed Wind Dir Waves Ship Positions

Pilot No. 4

Owner: P E P Inc, FORT LAUDERDALE, FL. More information available from US FCC via Universal Licensing System and Coast Guard Vessel Documentation Center.

Last reported at 2017-Oct-19 04:54 UTC. Time now 2017-Oct-20 09:08 UTC.
Position N 26°06' W 080°07'.

MMSI: 495270931.

Date/timePositionNaut miles runAvg speedWind from/ knotsBaromVisibWave heightAir tempDewpointWater temp
2017-Oct-19 04:54N 26°06' W 080°07'2 4.7
2017-Oct-19 04:30N 26°05' W 080°05'2 3.0
2017-Oct-19 04:00N 26°05' W 080°07'0 0.1
2017-Oct-19 03:30N 26°05' W 080°07'2 3.9
2017-Oct-19 03:00N 26°06' W 080°05'2 4.2
2017-Oct-19 02:30N 26°06' W 080°07'1 1.1
2017-Oct-19 02:00N 26°05' W 080°07'1 1.4
2017-Oct-19 01:30N 26°06' W 080°07'2 3.7
2017-Oct-19 01:01N 26°06' W 080°05'1 2.2
2017-Oct-19 00:30N 26°05' W 080°04'3 5.9
2017-Oct-19 00:00N 26°04' W 080°07'1 2.6
2017-Oct-18 23:30N 26°06' W 080°07'0 0.4
2017-Oct-18 23:00N 26°05' W 080°07'2 3.5
2017-Oct-18 22:30N 26°06' W 080°05'2 3.5
2017-Oct-18 22:00N 26°05' W 080°07'1 2.7
2017-Oct-18 21:30N 26°06' W 080°06'1 2.8
2017-Oct-18 21:00N 26°06' W 080°07'611.7
2017-Oct-18 20:30N 26°06' W 080°01'4 8.7
2017-Oct-18 20:00N 26°06' W 080°06'2 3.8
2017-Oct-18 19:30N 26°04' W 080°07'2 0.2
2017-Oct-18 10:55N 26°06' W 080°07'3 6.3
2017-Oct-18 10:30N 26°05' W 080°05'2 4.8
2017-Oct-18 10:01N 26°04' W 080°07'2 4.7
2017-Oct-18 09:30N 26°05' W 080°05'1 2.0
2017-Oct-18 09:01N 26°05' W 080°04'3 6.1
2017-Oct-18 08:30N 26°05' W 080°07'0 0.4
2017-Oct-18 08:00N 26°05' W 080°07'1 0.3
2017-Oct-18 03:26N 26°06' W 080°07'511.4
2017-Oct-18 03:00N 26°06' W 080°02'2 4.5
2017-Oct-18 02:30N 26°06' W 080°04'1 1.2
2017-Oct-18 02:00N 26°06' W 080°04'3 6.1
2017-Oct-18 01:30N 26°06' W 080°07'2 3.8
2017-Oct-18 01:00N 26°06' W 080°05'1 1.9
2017-Oct-18 00:30N 26°06' W 080°06'1 2.0
2017-Oct-18 00:01N 26°06' W 080°07'2 4.1
2017-Oct-17 23:30N 26°06' W 080°05'2 4.0
2017-Oct-17 23:00N 26°06' W 080°07'2 3.5
2017-Oct-17 22:30N 26°06' W 080°05'2 3.1
2017-Oct-17 22:00N 26°06' W 080°07'1 2.2
2017-Oct-17 21:30N 26°04' W 080°07'1 1.6
2017-Oct-17 21:01N 26°05' W 080°07'1 2.3
2017-Oct-17 20:30N 26°06' W 080°06'1 2.8
2017-Oct-17 20:00N 26°06' W 080°07'  
2017-Oct-14 18:52N 26°06' W 080°07'0 0.1
2017-Oct-14 18:30N 26°06' W 080°07'2 3.4
2017-Oct-14 18:00N 26°06' W 080°06'1 2.6
2017-Oct-14 17:30N 26°06' W 080°07'5 9.3
2017-Oct-14 17:00N 26°05' W 080°02'4 8.8
2017-Oct-14 16:30N 26°06' W 080°07'0 0.4
2017-Oct-14 16:00N 26°05' W 080°07'1 1.1
2017-Oct-14 15:30N 26°06' W 080°07'0 0.3
2017-Oct-14 14:47N 26°06' W 080°07'2 7.3
2017-Oct-14 14:30N 26°04' W 080°07'4 8.8
2017-Oct-14 14:00N 26°06' W 080°02'4 8.7
2017-Oct-14 13:30N 26°04' W 080°07'3 6.6
2017-Oct-14 13:00N 26°06' W 080°04'3 5.9
2017-Oct-14 12:31N 26°05' W 080°07'1 1.3
2017-Oct-14 12:00N 26°06' W 080°06'1 1.5
2017-Oct-14 11:30N 26°05' W 080°07'1 0.1
2017-Oct-13 19:15N 26°06' W 080°07'1 4.5
2017-Oct-13 19:00N 26°05' W 080°07'0 0.4
2017-Oct-13 18:30N 26°05' W 080°07'1 1.5
2017-Oct-13 18:01N 26°06' W 080°06'0 0.5
2017-Oct-13 17:30N 26°06' W 080°06'1 1.3
2017-Oct-13 17:00N 26°06' W 080°06'1 1.2
2017-Oct-13 16:30N 26°06' W 080°05'2 3.8
2017-Oct-13 16:00N 26°06' W 080°07'1 0.3
2017-Oct-13 13:51N 26°06' W 080°07'2 4.3
2017-Oct-13 13:30N 26°06' W 080°06'1 1.9
2017-Oct-13 13:00N 26°06' W 080°05'1 1.7
2017-Oct-13 12:30N 26°05' W 080°04'2 4.5
2017-Oct-13 12:00N 26°06' W 080°07'1 1.2
2017-Oct-13 11:25N 26°06' W 080°07'512.6
2017-Oct-13 11:00N 26°05' W 080°02'5 9.3
2017-Oct-13 10:30N 26°06' W 080°07'5 9.3
2017-Oct-13 10:00N 26°05' W 080°02'5 9.7
2017-Oct-13 09:30N 26°05' W 080°07'2 3.5
2017-Oct-13 09:00N 26°06' W 080°05'1 2.3
2017-Oct-13 08:30N 26°06' W 080°06'1 2.2
2017-Oct-13 08:00N 26°05' W 080°07'1 2.7
2017-Oct-13 07:30N 26°06' W 080°06'1 1.9
2017-Oct-13 07:00N 26°05' W 080°07'1 1.0
2017-Oct-13 06:00N 26°06' W 080°07'1 1.3
2017-Oct-13 05:30N 26°06' W 080°07'1 0.3
2017-Oct-13 03:03N 26°06' W 080°07'0 4.2
2017-Oct-13 03:00N 26°06' W 080°07'3 5.6
2017-Oct-13 02:30N 26°06' W 080°04'1 1.1
2017-Oct-13 02:00N 26°06' W 080°04'2 4.9
2017-Oct-13 01:30N 26°05' W 080°07'0 0.3
2017-Oct-13 01:00N 26°06' W 080°07'1 1.3
2017-Oct-13 00:30N 26°06' W 080°07'0 0.0
2017-Oct-13 00:00N 26°06' W 080°07'0 0.0
2017-Oct-12 23:30N 26°06' W 080°07'2 4.3
2017-Oct-12 23:00N 26°04' W 080°07'0 1.0
2017-Oct-12 22:30N 26°05' W 080°07'1 1.5
2017-Oct-12 22:00N 26°05' W 080°07'2 3.4
2017-Oct-12 21:31N 26°05' W 080°05'2 3.4
2017-Oct-12 21:00N 26°05' W 080°07'1 1.0
2017-Oct-12 20:18N 26°06' W 080°07'1 2.5
2017-Oct-12 20:01N 26°05' W 080°07'2 4.7
2017-Oct-12 19:31N 26°06' W 080°05'2 0.6
2017-Oct-12 15:26N 26°06' W 080°07'0 0.0
2017-Oct-12 14:55N 26°06' W 080°07'1 1.7
2017-Oct-12 14:30N 26°06' W 080°07'3 6.1
2017-Oct-12 14:00N 26°06' W 080°03'3 6.5
2017-Oct-12 13:30N 26°05' W 080°07'2 3.9
2017-Oct-12 13:00N 26°05' W 080°05'2 3.8
2017-Oct-12 12:30N 26°05' W 080°07'2 4.0
2017-Oct-12 12:00N 26°06' W 080°05'2 3.8
2017-Oct-12 11:30N 26°05' W 080°07'1 1.0
2017-Oct-12 10:52N 26°06' W 080°07'2 6.0
2017-Oct-12 10:30N 26°06' W 080°05'4 7.7
2017-Oct-12 10:01N 26°06' W 080°01'611.3
2017-Oct-12 09:30N 26°06' W 080°07'0 0.4
2017-Oct-12 09:00N 26°06' W 080°07'0 0.3
2017-Oct-12 07:45N 26°06' W 080°07'2 6.9
2017-Oct-12 07:30N 26°05' W 080°06'0 0.9
2017-Oct-12 07:00N 26°06' W 080°06'0 0.7
2017-Oct-12 06:31N 26°05' W 080°06'1 1.4
2017-Oct-12 06:01N 26°06' W 080°06'1 0.4
2017-Oct-12 04:14N 26°06' W 080°07'1 6.2
2017-Oct-12 04:01N 26°05' W 080°06'0 0.7
2017-Oct-12 03:30N 26°05' W 080°05'2 3.0
2017-Oct-12 03:00N 26°05' W 080°07'1 0.7
2017-Oct-12 01:50N 26°06' W 080°07'1 3.0
2017-Oct-12 01:30N 26°06' W 080°06'0 1.0
2017-Oct-12 01:00N 26°05' W 080°07'1 2.0
2017-Oct-12 00:30N 26°04' W 080°07'2 4.3
2017-Oct-12 00:00N 26°06' W 080°05'2 3.5
2017-Oct-11 23:30N 26°05' W 080°07'0 0.0
2017-Oct-11 23:00N 26°05' W 080°07'0 0.1
2017-Oct-11 22:31N 26°05' W 080°07'2 3.1
2017-Oct-11 22:01N 26°05' W 080°05'2 3.5
2017-Oct-11 21:30N 26°06' W 080°07'2 3.1
2017-Oct-11 21:00N 26°04' W 080°07'1 2.0
2017-Oct-11 20:30N 26°05' W 080°07'3 5.6
2017-Oct-11 20:00N 26°06' W 080°04'0 0.3
2017-Oct-11 19:30N 26°06' W 080°04'3 5.5
2017-Oct-11 18:59N 26°06' W 080°07'0 0.4
2017-Oct-11 18:30N 26°06' W 080°07'1 3.0
2017-Oct-11 18:00N 26°05' W 080°05'1 1.1
2017-Oct-11 17:30N 26°06' W 080°05'2 4.8
2017-Oct-11 17:00N 26°04' W 080°07'0 0.0
2017-Oct-11 00:00N 26°04' W 080°07'1 1.4
2017-Oct-10 23:27N 26°05' W 080°07'1 1.2
2017-Oct-10 23:00N 26°06' W 080°07'1 2.1
2017-Oct-10 22:30N 26°06' W 080°05'2 3.6
2017-Oct-10 22:00N 26°04' W 080°07'1 0.6
2017-Oct-10 19:31N 26°06' W 080°07'0 6.5
2017-Oct-10 19:31N 26°06' W 080°07'3 6.5
2017-Oct-10 19:00N 26°06' W 080°04'3 6.6
2017-Oct-10 18:29N 26°06' W 080°07'1 1.1
2017-Oct-10 17:24N 26°06' W 080°06'1 0.1
2017-Oct-10 08:37N 26°05' W 080°05'1 0.2
2017-Oct-10 05:12N 26°06' W 080°05'1 2.8
2017-Oct-10 04:50N 26°05' W 080°06'2 4.3
2017-Oct-10 04:27N 26°04' W 080°07'2 0.2
2017-Oct-09 17:46N 26°06' W 080°05'2 0.7
2017-Oct-09 15:21N 26°05' W 080°07'2 0.2
2017-Oct-09 09:04N 26°06' W 080°05'1 0.2
2017-Oct-09 05:26N 26°06' W 080°06'  

Dump ship's entire track history